createdAt,value
2024-04-13T12:49:08.933Z,100843.22
2024-04-13T12:51:35.743Z,100836.97
2024-04-13T12:54:02.406Z,100842.25
2024-04-13T12:56:29.322Z,100828.19
2024-04-13T12:58:55.941Z,100822.88
2024-04-13T13:01:25.557Z,100831.81
2024-04-13T13:03:52.513Z,100827.13
2024-04-13T13:06:19.507Z,100827.13
2024-04-13T13:08:46.223Z,100808.78
2024-04-13T13:11:13.074Z,100805.97
2024-04-13T13:13:39.857Z,100788.72
2024-04-13T13:16:07.606Z,100802.50
2024-04-13T13:18:34.536Z,100797.25
2024-04-13T13:21:01.283Z,100795.38
2024-04-13T13:23:27.896Z,100793.59
2024-04-13T13:25:55.786Z,100801.53
2024-04-13T13:28:22.723Z,100795.38
2024-04-13T13:30:49.559Z,100766.66
2024-04-13T13:33:16.395Z,100790.06
2024-04-13T13:35:43.203Z,100786.59
2024-04-13T13:38:11.369Z,100776.00
2024-04-13T13:40:38.055Z,100769.72
2024-04-13T13:43:06.321Z,100754.50
2024-04-13T13:45:33.140Z,100763.50
2024-04-13T13:47:59.952Z,100767.94
2024-04-13T13:50:26.807Z,100764.44
2024-04-13T13:52:53.499Z,100757.44
2024-04-13T13:55:20.281Z,100764.25
2024-04-13T13:57:47.012Z,100759.13
2024-04-13T14:00:14.118Z,100746.66
2024-04-13T14:02:40.815Z,100747.59
2024-04-13T14:05:07.727Z,100736.88
2024-04-13T14:07:34.510Z,100733.41
2024-04-13T14:10:01.424Z,100725.63
2024-04-13T14:12:28.090Z,100720.16
2024-04-13T14:14:56.235Z,100715.03
2024-04-13T14:17:23.110Z,100677.44
2024-04-13T14:19:49.805Z,100712.28
2024-04-13T14:22:16.471Z,100695.94
2024-04-13T14:24:43.253Z,100714.75
2024-04-13T14:27:09.876Z,100702.53
2024-04-13T14:29:37.337Z,100714.66
2024-04-13T14:32:04.368Z,100712.03
2024-04-13T14:34:31.126Z,100693.47
2024-04-13T14:36:58.888Z,100700.56
2024-04-13T14:39:25.751Z,100698.75
2024-04-13T14:41:52.791Z,100688.34
2024-04-13T14:44:20.422Z,100690.88
2024-04-13T14:46:48.479Z,100675.72
2024-04-13T14:49:15.269Z,100674.91
2024-04-13T14:51:41.927Z,100670.72
2024-04-13T14:54:08.913Z,100673.94
2024-04-13T14:56:35.627Z,100674.03
2024-04-13T14:59:02.304Z,100681.03
2024-04-13T15:01:29.077Z,100686.25
2024-04-13T15:03:56.167Z,100680.03
2024-04-13T15:06:24.739Z,100678.19
2024-04-13T15:08:51.817Z,100679.06
2024-04-13T15:11:18.612Z,100666.75
2024-04-13T15:13:45.386Z,100657.00
2024-04-13T15:16:12.057Z,100652.72
2024-04-13T15:35:37.156Z,100606.25
2024-04-13T15:38:04.426Z,100575.63
2024-04-13T15:40:32.489Z,100607.75
2024-04-13T15:43:05.676Z,100602.31
2024-04-13T15:45:33.006Z,100589.53
2024-04-13T15:48:02.932Z,100594.53
2024-04-13T15:50:30.735Z,100594.22
2024-04-13T15:53:00.014Z,100590.75
2024-04-13T15:55:28.435Z,100586.25
2024-04-13T15:57:55.827Z,100553.88
2024-04-13T16:00:23.234Z,100585.84
2024-04-13T16:02:50.634Z,100586.91
2024-04-13T16:05:17.907Z,100569.56
2024-04-13T16:07:45.135Z,100576.13
2024-04-13T16:10:12.544Z,100580.31
2024-04-13T16:12:39.928Z,100572.97
2024-04-13T16:15:10.059Z,100581.81
2024-04-13T16:17:37.352Z,100572.75
2024-04-13T16:20:04.903Z,100570.31
2024-04-13T16:22:31.564Z,100572.88
2024-04-13T16:24:58.495Z,100562.66
2024-04-13T16:27:25.281Z,100559.25
2024-04-13T16:29:51.957Z,100569.66
2024-04-13T16:32:18.627Z,100561.91
2024-04-13T16:34:45.346Z,100547.56
2024-04-13T16:37:12.136Z,100549.16
2024-04-13T16:39:38.843Z,100545.19
2024-04-13T16:42:05.902Z,100547.94
2024-04-13T16:44:32.517Z,100547.50
2024-04-13T16:47:00.949Z,100540.72
2024-04-13T16:49:27.671Z,100535.91
2024-04-13T16:51:54.469Z,100529.22
2024-04-13T16:54:22.428Z,100537.19
2024-04-13T16:56:49.466Z,100533.44
2024-04-13T16:59:16.136Z,100536.44
2024-04-13T17:01:42.839Z,100525.22
2024-04-13T17:04:09.709Z,100516.75
2024-04-13T17:06:36.813Z,100512.16
2024-04-13T17:09:04.242Z,100510.00
2024-04-13T17:11:31.003Z,100508.06
2024-04-13T17:13:57.767Z,100512.66
2024-04-13T17:16:24.805Z,100510.34
2024-04-13T17:18:51.751Z,100498.97
2024-04-13T17:21:18.566Z,100500.34
2024-04-13T17:23:45.688Z,100508.38
2024-04-13T17:26:12.472Z,100476.00
2024-04-13T17:28:39.128Z,100481.44
2024-04-13T17:31:06.401Z,100463.84
2024-04-13T17:33:33.101Z,100485.88
2024-04-13T17:35:59.759Z,100481.78
2024-04-13T17:38:26.393Z,100470.69
2024-04-13T17:41:00.486Z,100455.34
2024-04-13T17:43:28.541Z,100496.22
2024-04-13T17:45:55.659Z,100481.16
2024-04-13T17:48:23.602Z,100484.34
2024-04-13T17:50:53.766Z,100477.47
2024-04-13T17:53:21.450Z,100477.47
2024-04-13T17:55:48.206Z,100469.63
2024-04-13T17:58:14.895Z,100471.53
2024-04-13T18:00:41.754Z,100452.81
2024-04-13T18:03:09.049Z,100484.38
2024-04-13T18:05:36.478Z,100466.38
2024-04-13T18:08:05.754Z,100471.50
2024-04-13T18:10:32.690Z,100478.22
2024-04-13T18:12:59.480Z,100484.16
2024-04-13T18:15:26.933Z,100474.97
2024-04-13T18:17:55.078Z,100465.25
2024-04-13T18:20:22.300Z,100457.75
2024-04-13T18:22:49.143Z,100471.22
2024-04-13T18:25:16.485Z,100438.16
2024-04-13T18:27:43.291Z,100461.44
2024-04-13T18:30:10.685Z,100457.13
2024-04-13T18:32:37.488Z,100432.00
2024-04-13T18:35:04.939Z,100464.56
2024-04-13T18:37:31.666Z,100471.47
2024-04-13T18:40:01.829Z,100469.59
2024-04-13T18:42:31.650Z,100445.94
2024-04-13T18:44:58.794Z,100462.31
2024-04-13T18:47:25.531Z,100454.34
2024-04-13T18:49:54.976Z,100460.13
2024-04-13T18:52:25.329Z,100470.75
2024-04-13T18:54:52.149Z,100466.91
2024-04-13T18:57:18.920Z,100455.13
2024-04-13T18:59:47.063Z,100458.84
2024-04-13T19:02:13.791Z,100451.47
2024-04-13T19:04:40.433Z,100449.75
2024-04-13T19:07:07.067Z,100444.34
2024-04-13T19:09:33.842Z,100444.06
2024-04-13T19:12:00.904Z,100436.31
2024-04-13T19:14:27.603Z,100438.94
2024-04-13T19:16:55.797Z,100453.22
2024-04-13T19:19:22.651Z,100429.94
2024-04-13T19:21:51.155Z,100388.34
2024-04-13T19:24:20.535Z,100428.97
2024-04-13T19:26:47.484Z,100419.75
2024-04-13T19:29:15.899Z,100422.59
2024-04-13T19:31:42.827Z,100404.28
2024-04-13T19:34:10.290Z,100422.72
2024-04-13T19:36:37.291Z,100432.69
2024-04-13T19:39:04.099Z,100432.06
2024-04-13T19:41:30.825Z,100422.72
2024-04-13T19:43:57.531Z,100422.94
2024-04-13T19:46:24.295Z,100393.34
2024-04-13T19:48:51.057Z,100421.81
2024-04-13T19:51:17.972Z,100425.16
2024-04-13T19:53:48.059Z,100423.69
2024-04-13T19:56:15.480Z,100417.69
2024-04-13T19:58:42.175Z,100412.88
2024-04-13T20:01:09.903Z,100417.50
2024-04-13T20:03:37.508Z,100425.72
2024-04-13T20:06:04.575Z,100419.81
2024-04-13T20:08:31.218Z,100411.53
2024-04-13T20:11:10.478Z,100428.78
2024-04-13T20:13:37.618Z,100421.34
2024-04-13T20:16:22.908Z,100400.56
2024-04-13T20:18:50.409Z,100399.84
2024-04-13T20:21:17.246Z,100389.59
2024-04-13T20:23:43.945Z,100396.31
2024-04-13T20:26:10.719Z,100383.28
2024-04-13T20:28:37.378Z,100354.75
2024-04-13T20:31:04.386Z,100374.59
2024-04-13T20:33:31.788Z,100377.34
2024-04-13T20:35:59.698Z,100356.91
2024-04-13T20:38:27.103Z,100358.31
2024-04-13T20:40:55.368Z,100352.72
2024-04-13T20:43:22.190Z,100357.69
2024-04-13T20:45:48.978Z,100358.63
2024-04-13T20:48:16.057Z,100347.47
2024-04-13T20:50:42.908Z,100313.56
2024-04-13T20:53:09.811Z,100350.53
2024-04-13T20:55:36.578Z,100360.59
2024-04-13T20:58:05.861Z,100356.97
2024-04-13T21:00:33.177Z,100356.41
2024-04-13T21:03:07.342Z,100347.75
2024-04-13T21:05:35.035Z,100348.19
2024-04-13T21:08:02.667Z,100307.19
2024-04-13T21:10:30.298Z,100336.75
2024-04-13T21:12:57.087Z,100338.69
2024-04-13T21:15:24.351Z,100340.88
2024-04-13T21:17:51.013Z,100337.47
2024-04-13T21:20:17.721Z,100342.03
2024-04-13T21:22:44.372Z,100338.56
2024-04-13T21:25:11.096Z,100339.75
2024-04-13T21:27:37.759Z,100316.84
2024-04-13T21:30:05.723Z,100334.97
2024-04-13T21:32:32.408Z,100337.72
2024-04-13T21:34:59.196Z,100321.84
2024-04-13T21:37:25.877Z,100318.81
2024-04-13T21:39:52.613Z,100306.06
2024-04-13T21:42:19.947Z,100307.63
2024-04-13T21:44:46.763Z,100308.81
2024-04-13T21:47:13.368Z,100306.47
2024-04-13T21:49:40.246Z,100291.72
2024-04-13T21:52:07.018Z,100295.00
2024-04-13T21:54:33.770Z,100291.19
2024-04-13T21:57:00.439Z,100290.72
2024-04-13T21:59:27.134Z,100290.34
2024-04-13T22:01:54.381Z,100289.56
2024-04-13T22:04:21.114Z,100294.25
2024-04-13T22:06:47.814Z,100292.50
2024-04-13T22:09:14.643Z,100285.59
2024-04-13T22:11:42.852Z,100297.66
2024-04-13T22:14:09.577Z,100282.28
2024-04-13T22:16:37.028Z,100284.19
2024-04-13T22:19:04.119Z,100272.19
2024-04-13T22:21:30.973Z,100280.19
2024-04-13T22:23:58.791Z,100274.25
2024-04-13T22:26:25.642Z,100277.78
2024-04-13T22:28:52.986Z,100264.38
2024-04-13T22:31:19.744Z,100261.50
2024-04-13T22:33:47.377Z,100269.88
2024-04-13T22:36:14.370Z,100256.47
2024-04-13T22:38:41.207Z,100253.47
2024-04-13T22:41:07.909Z,100256.13
2024-04-13T22:43:35.018Z,100222.66
2024-04-13T22:46:03.328Z,100245.88
2024-04-13T22:48:30.467Z,100253.69
2024-04-13T22:51:01.236Z,100241.59
2024-04-13T22:53:28.899Z,100246.84
2024-04-13T22:55:57.846Z,100247.00
2024-04-13T22:58:24.733Z,100232.75
2024-04-13T23:00:55.397Z,100232.47
2024-04-13T23:03:22.581Z,100170.44
2024-04-13T23:06:00.594Z,100237.06
2024-04-13T23:08:27.886Z,100222.78
2024-04-13T23:10:55.216Z,100219.72
2024-04-13T23:13:21.974Z,100225.78
2024-04-13T23:15:49.664Z,100222.34
2024-04-13T23:18:16.706Z,100217.69
2024-04-13T23:20:49.735Z,100220.59
2024-04-13T23:23:16.776Z,100216.94
2024-04-13T23:25:47.085Z,100201.84
2024-04-13T23:28:14.556Z,100195.78
2024-04-13T23:30:41.521Z,100206.97
2024-04-13T23:33:08.359Z,100191.84
2024-04-13T23:35:35.172Z,100198.50
2024-04-13T23:38:02.698Z,100153.97
2024-04-13T23:40:30.105Z,100196.03
2024-04-13T23:42:56.904Z,100192.81
2024-04-13T23:45:23.624Z,100197.06
2024-04-13T23:47:50.393Z,100189.41
2024-04-13T23:50:21.252Z,100177.41
2024-04-13T23:52:48.045Z,100186.34
2024-04-13T23:55:15.372Z,100180.56
2024-04-13T23:57:43.560Z,100187.03
